createdAt,value
2022-08-03T00:04:23.305Z,100994.31
2022-08-03T00:09:36.054Z,100989.94
2022-08-03T00:14:37.445Z,100989.97
2022-08-03T00:19:38.793Z,100985.84
2022-08-03T00:24:40.179Z,100990.09
2022-08-03T00:29:59.958Z,100988.28
2022-08-03T00:35:04.362Z,100987.00
2022-08-03T00:40:11.539Z,100983.81
2022-08-03T00:45:12.884Z,100983.94
2022-08-03T00:50:14.517Z,100983.94
2022-08-03T00:55:16.255Z,100986.22
2022-08-03T01:00:20.861Z,100988.88
2022-08-03T01:05:24.392Z,100979.94
2022-08-03T01:11:04.104Z,100976.78
2022-08-03T01:16:05.424Z,100971.63
2022-08-03T01:21:09.970Z,100966.00
2022-08-03T01:26:27.995Z,100972.09
2022-08-03T01:31:32.456Z,100974.47
2022-08-03T01:36:36.478Z,100978.38
2022-08-03T01:41:44.755Z,100966.66
2022-08-03T01:46:49.183Z,100974.00
2022-08-03T01:52:03.447Z,100972.03
2022-08-03T01:57:06.689Z,100963.44
2022-08-03T02:02:29.185Z,100961.25
2022-08-03T02:07:32.030Z,100966.28
2022-08-03T02:12:34.183Z,100962.09
2022-08-03T02:17:38.954Z,100955.31
2022-08-03T02:22:42.054Z,100955.56
2022-08-03T02:27:48.708Z,100955.72
2022-08-03T02:32:54.535Z,100958.56
2022-08-03T02:38:01.186Z,100957.22
2022-08-03T02:43:03.825Z,100957.94
2022-08-03T02:48:06.880Z,100964.16
2022-08-03T02:53:09.679Z,100962.38
2022-08-03T02:58:12.719Z,100956.69
2022-08-03T03:03:14.808Z,100963.50
2022-08-03T03:08:20.819Z,100960.50
2022-08-03T03:13:28.707Z,100962.44
2022-08-03T03:18:32.021Z,100961.75
2022-08-03T03:23:35.236Z,100960.44
2022-08-03T03:28:39.257Z,100964.91
2022-08-03T03:33:40.597Z,100965.22
2022-08-03T03:38:42.026Z,100963.09
2022-08-03T03:43:43.413Z,100970.63
2022-08-03T03:48:44.922Z,100966.09
2022-08-03T03:53:59.042Z,100974.41
2022-08-03T03:59:00.519Z,100963.66
2022-08-03T04:04:21.841Z,100971.88
2022-08-03T04:09:42.075Z,100969.00
2022-08-03T04:14:43.835Z,100963.72
2022-08-03T04:19:47.745Z,100960.66
2022-08-03T04:25:09.110Z,100961.19
2022-08-03T04:30:10.769Z,100968.41
2022-08-03T04:35:12.127Z,100971.06
2022-08-03T04:40:14.709Z,100975.13
2022-08-03T04:45:17.720Z,100978.72
2022-08-03T04:50:21.702Z,100985.75
2022-08-03T04:55:30.233Z,100983.41
2022-08-03T05:00:31.923Z,100979.22
2022-08-03T05:05:48.806Z,100979.66
2022-08-03T05:10:51.808Z,100976.47
2022-08-03T05:15:53.164Z,100980.72
2022-08-03T05:20:54.588Z,100991.78
2022-08-03T05:25:55.970Z,100991.81
2022-08-03T05:30:57.414Z,100991.63
2022-08-03T05:36:03.064Z,100996.13
2022-08-03T05:41:20.606Z,100994.44
2022-08-03T05:46:24.770Z,100986.91
2022-08-03T05:51:26.152Z,100985.34
2022-08-03T05:56:27.519Z,100990.31
2022-08-03T06:01:29.221Z,100979.53
2022-08-03T06:06:32.321Z,100981.25
2022-08-03T06:11:33.889Z,100977.09
2022-08-03T06:16:35.513Z,100991.91
2022-08-03T06:21:36.856Z,100983.81
2022-08-03T06:26:41.297Z,100991.47
2022-08-03T06:31:42.666Z,100983.41
2022-08-03T06:36:44.027Z,100982.63
2022-08-03T06:41:45.662Z,100975.09
2022-08-03T06:46:47.737Z,100985.34
2022-08-03T06:52:05.678Z,100985.84
2022-08-03T06:57:08.442Z,100984.72
2022-08-03T07:02:10.377Z,100980.22
2022-08-03T07:07:11.855Z,100977.56
2022-08-03T07:12:13.321Z,100970.63
2022-08-03T07:17:14.713Z,100970.22
2022-08-03T07:22:16.347Z,100980.66
2022-08-03T07:27:17.982Z,100971.19
2022-08-03T07:32:19.603Z,100972.91
2022-08-03T07:37:21.206Z,100970.59
2022-08-03T07:42:23.873Z,100962.09
2022-08-03T07:47:35.666Z,100968.28
2022-08-03T07:52:53.520Z,100968.19
2022-08-03T07:58:01.990Z,100961.31
2022-08-03T08:03:04.147Z,100962.44
2022-08-03T08:08:05.525Z,100947.88
2022-08-03T08:13:06.875Z,100945.00
2022-08-03T08:18:08.220Z,100936.91
2022-08-03T08:23:37.752Z,100927.31
2022-08-03T08:28:33.658Z,100939.50
2022-08-03T08:34:03.065Z,100933.94
2022-08-03T08:38:57.490Z,100931.88
2022-08-03T08:44:00.182Z,100923.25
2022-08-03T08:49:04.819Z,100917.66
2022-08-03T08:54:07.558Z,100917.44
2022-08-03T08:59:08.948Z,100925.69
2022-08-03T09:04:10.482Z,100920.97
2022-08-03T09:09:11.832Z,100910.28
2022-08-03T09:14:36.836Z,100911.59
2022-08-03T09:19:42.534Z,100901.25
2022-08-03T09:30:34.215Z,100883.81
2022-08-03T09:35:54.770Z,100895.56
2022-08-03T09:40:59.940Z,100888.38
2022-08-03T09:46:02.983Z,100894.69
2022-08-03T09:51:14.141Z,100889.25
2022-08-03T09:56:38.573Z,100882.66
2022-08-03T10:01:41.872Z,100875.09
2022-08-03T10:06:44.213Z,100870.75
2022-08-03T10:11:46.992Z,100866.78
2022-08-03T10:16:48.813Z,100860.88
2022-08-03T10:21:53.652Z,100864.19
2022-08-03T10:27:14.825Z,100854.53
2022-08-03T10:32:19.217Z,100858.09
2022-08-03T10:37:21.601Z,100842.16
2022-08-03T10:42:24.297Z,100837.59
2022-08-03T10:47:28.129Z,100835.78
2022-08-03T10:52:33.730Z,100819.72
2022-08-03T10:57:44.161Z,100825.50
2022-08-03T11:03:06.704Z,100812.25
2022-08-03T11:08:26.406Z,100804.53
2022-08-03T11:13:31.713Z,100799.00
2022-08-03T11:18:33.079Z,100786.19
2022-08-03T11:24:05.371Z,100790.38
2022-08-03T11:29:23.834Z,100786.97
2022-08-03T11:34:25.692Z,100787.53
2022-08-03T11:39:39.492Z,100781.41
2022-08-03T11:44:40.907Z,100774.00
2022-08-03T11:49:42.390Z,100771.09
2022-08-03T11:54:44.051Z,100768.38
2022-08-03T11:59:45.388Z,100767.75
2022-08-03T12:05:01.351Z,100759.31
2022-08-03T12:10:10.541Z,100763.31
2022-08-03T12:15:11.936Z,100752.31
2022-08-03T12:20:21.443Z,100757.03
2022-08-03T12:25:39.141Z,100746.47
2022-08-03T12:30:41.694Z,100749.97
2022-08-03T12:35:52.546Z,100743.19
2022-08-03T12:41:00.036Z,100748.78
2022-08-03T12:46:11.943Z,100741.22
2022-08-03T12:51:13.284Z,100735.00
2022-08-03T12:56:14.705Z,100733.03
2022-08-03T13:01:16.601Z,100727.69
2022-08-03T13:06:19.282Z,100728.25
2022-08-03T13:11:21.664Z,100719.91
2022-08-03T13:16:23.280Z,100723.75
2022-08-03T13:21:24.684Z,100717.63
2022-08-03T13:26:26.033Z,100722.81
2022-08-03T13:31:27.381Z,100716.56
2022-08-03T13:36:29.952Z,100710.50
2022-08-03T13:41:44.187Z,100704.97
2022-08-03T13:46:48.908Z,100695.47
2022-08-03T13:51:50.344Z,100687.56
2022-08-03T14:03:13.265Z,100680.38
2022-08-03T14:08:15.037Z,100678.25
2022-08-03T14:13:17.634Z,100673.63
2022-08-03T14:18:28.750Z,100676.75
2022-08-03T14:23:35.313Z,100665.88
2022-08-03T14:28:36.730Z,100656.09
2022-08-03T14:33:38.537Z,100652.66
2022-08-03T14:38:39.970Z,100645.78
2022-08-03T14:43:41.361Z,100630.34
2022-08-03T14:50:34.415Z,100630.41
2022-08-03T14:54:24.243Z,100626.78
2022-08-03T14:59:25.798Z,100626.38
2022-08-03T15:04:27.213Z,100627.44
2022-08-03T15:09:28.764Z,100615.44
2022-08-03T15:14:33.387Z,100615.28
2022-08-03T15:20:03.242Z,100607.00
2022-08-03T15:24:57.726Z,100603.47
2022-08-03T15:30:08.968Z,100595.13
2022-08-03T15:35:11.775Z,100590.34
2022-08-03T15:40:13.187Z,100583.16
2022-08-03T15:45:14.542Z,100580.84
2022-08-03T15:50:19.251Z,100575.38
2022-08-03T15:55:20.661Z,100579.50
2022-08-03T16:00:33.440Z,100564.75
2022-08-03T16:05:35.614Z,100568.75
2022-08-03T16:10:36.994Z,100557.28
2022-08-03T16:15:39.096Z,100558.41
2022-08-03T16:20:41.776Z,100554.16
2022-08-03T16:25:44.443Z,100550.81
2022-08-03T16:30:52.600Z,100552.06
2022-08-03T16:35:54.988Z,100545.50
2022-08-03T16:40:56.338Z,100542.44
2022-08-03T16:45:57.670Z,100552.81
2022-08-03T16:50:59.011Z,100549.78
2022-08-03T16:56:00.699Z,100561.31
2022-08-03T17:01:20.750Z,100552.22
2022-08-03T17:06:24.046Z,100551.25
2022-08-03T17:11:35.358Z,100548.34
2022-08-03T17:16:38.578Z,100549.84
2022-08-03T17:21:45.370Z,100555.13
2022-08-03T17:26:53.131Z,100553.94
2022-08-03T17:31:55.046Z,100547.16
2022-08-03T17:37:05.066Z,100553.88
2022-08-03T17:42:29.528Z,100550.97
2022-08-03T17:47:41.433Z,100554.34
2022-08-03T17:52:48.468Z,100560.91
2022-08-03T17:58:02.737Z,100564.81
2022-08-03T18:03:20.915Z,100556.53
2022-08-03T18:08:32.268Z,100556.66
2022-08-03T18:14:09.899Z,100562.09
2022-08-03T18:19:18.962Z,100557.53
2022-08-03T18:24:20.982Z,100572.13
2022-08-03T18:29:29.937Z,100564.22
2022-08-03T18:34:34.081Z,100576.78
2022-08-03T18:39:49.486Z,100578.22
2022-08-03T18:44:54.056Z,100576.56
2022-08-03T18:50:01.815Z,100579.88
2022-08-03T18:55:19.679Z,100581.50
2022-08-03T19:00:42.340Z,100586.88
2022-08-03T19:06:01.938Z,100591.31
2022-08-03T19:11:11.105Z,100602.44
2022-08-03T19:16:17.403Z,100609.28
2022-08-03T19:21:19.573Z,100609.13
2022-08-03T19:26:30.221Z,100612.22
2022-08-03T19:31:35.023Z,100626.84
2022-08-03T19:36:39.541Z,100622.19
2022-08-03T19:41:43.244Z,100626.59
2022-08-03T19:46:54.479Z,100619.19
2022-08-03T19:57:19.591Z,100635.16
2022-08-03T20:02:26.015Z,100630.38
2022-08-03T20:07:48.629Z,100650.34
2022-08-03T20:12:50.667Z,100646.16
2022-08-03T20:17:56.201Z,100645.75
2022-08-03T20:22:59.750Z,100649.38
2022-08-03T20:28:13.499Z,100640.44
2022-08-03T20:33:19.085Z,100643.88
2022-08-03T20:38:27.323Z,100648.63
2022-08-03T20:43:28.907Z,100649.78
2022-08-03T20:48:32.870Z,100649.41
2022-08-03T20:54:00.425Z,100650.31
2022-08-03T20:58:56.408Z,100649.16
2022-08-03T21:03:58.035Z,100645.63
2022-08-03T21:09:04.179Z,100649.59
2022-08-03T21:13:03.089Z,100621.47
2022-08-03T21:14:13.059Z,100646.13
2022-08-03T21:19:16.101Z,100647.69
2022-08-03T21:24:17.983Z,100640.00
2022-08-03T21:29:20.046Z,100644.59
2022-08-03T21:34:21.498Z,100641.44
2022-08-03T21:39:22.958Z,100640.22
2022-08-03T21:44:28.705Z,100640.09
2022-08-03T21:50:07.691Z,100641.53
2022-08-03T21:54:54.684Z,100644.53
2022-08-03T21:59:57.085Z,100640.88
2022-08-03T22:04:58.511Z,100644.66
2022-08-03T22:10:01.008Z,100648.94
2022-08-03T22:15:04.355Z,100650.00
2022-08-03T22:20:07.096Z,100648.72
2022-08-03T22:25:13.589Z,100643.38
2022-08-03T22:30:19.542Z,100649.53
2022-08-03T22:35:21.454Z,100647.41
2022-08-03T22:40:23.014Z,100653.25
2022-08-03T22:46:07.126Z,100657.75
2022-08-03T22:50:46.364Z,100651.13
2022-08-03T22:55:48.723Z,100651.13
2022-08-03T23:00:58.510Z,100651.38
2022-08-03T23:06:03.621Z,100655.31
2022-08-03T23:11:08.439Z,100656.88
2022-08-03T23:16:09.964Z,100661.91
2022-08-03T23:21:11.890Z,100654.44
2022-08-03T23:26:17.164Z,100664.28
2022-08-03T23:31:19.205Z,100666.63
2022-08-03T23:36:30.753Z,100665.28
2022-08-03T23:41:34.863Z,100670.50
2022-08-03T23:46:37.153Z,100672.31
2022-08-03T23:51:41.235Z,100668.25
2022-08-03T23:56:52.735Z,100665.84
